Corinth, Alabama
Current Conditions -  °F | °C
As of 4:07 AM on Tuesday 21 Oct 2014 (Local Time) from KANB Reporting Station
Haze Haze  
Wind Chill: 47°   Ceiling: Unl
Heat Index: 47°   Visibility: 1.7mi
Dew Point: 46°   Wind: 0mph
Humidity: 97%   Direction: NA
Pressure: 30.03"   Gusts: NA
Location:  33.2829°N, 85.491°W
Report Text: KANB 210907Z AUTO 00000KT 1 3/4SM BR FEW002 08/08 A3003 RMK AO2 T00830078
Loading
Personal Weather Stations






























Interactive Weather Map
Tropical Storm Tracking
New forecast layout! Learn more

10-Day Weather Forecast

Advertisements
Track Severe Weather on mobile